createdAt,value
2017-06-14T00:01:11.554Z,77.60
2017-06-14T00:03:39.924Z,77.90
2017-06-14T00:06:09.160Z,77.70
2017-06-14T00:08:37.997Z,78.00
2017-06-14T00:11:06.452Z,78.00
2017-06-14T00:13:35.917Z,78.30
2017-06-14T00:16:04.310Z,78.40
2017-06-14T00:18:32.688Z,78.60
2017-06-14T00:21:01.385Z,78.90
2017-06-14T00:23:30.178Z,78.70
2017-06-14T00:25:58.567Z,78.90
2017-06-14T00:28:26.872Z,79.40
2017-06-14T00:30:55.937Z,79.90
2017-06-14T00:33:24.637Z,79.90
2017-06-14T00:35:53.024Z,80.30
2017-06-14T00:38:22.173Z,80.40
2017-06-14T00:40:50.476Z,80.40
2017-06-14T00:43:18.776Z,80.30
2017-06-14T00:45:47.861Z,80.80
2017-06-14T00:48:16.661Z,81.00
2017-06-14T00:50:44.955Z,80.90
2017-06-14T00:53:13.281Z,81.50
2017-06-14T00:55:42.946Z,81.70
2017-06-14T00:58:11.339Z,81.70
2017-06-14T01:00:39.712Z,81.70
2017-06-14T01:03:08.084Z,82.10
2017-06-14T01:05:36.992Z,82.20
2017-06-14T01:08:05.283Z,82.00
2017-06-14T01:10:34.371Z,82.40
2017-06-14T01:13:03.161Z,82.50
2017-06-14T01:15:31.849Z,82.60
2017-06-14T01:18:00.260Z,82.80
2017-06-14T01:20:29.354Z,82.80
2017-06-14T01:22:58.128Z,83.20
2017-06-14T01:25:26.507Z,83.20
2017-06-14T01:27:54.792Z,83.50
2017-06-14T01:30:23.189Z,84.50
2017-06-14T01:32:51.564Z,83.60
2017-06-14T01:35:19.849Z,83.80
2017-06-14T01:37:48.158Z,84.10
2017-06-14T01:40:17.212Z,85.10
2017-06-14T01:42:45.913Z,84.70
2017-06-14T01:45:15.124Z,84.40
2017-06-14T01:47:43.406Z,84.90
2017-06-14T01:50:11.710Z,85.50
2017-06-14T01:52:40.648Z,84.90
2017-06-14T01:55:08.973Z,85.30
2017-06-14T01:57:37.357Z,85.70
2017-06-14T02:00:06.392Z,86.00
2017-06-14T02:02:35.039Z,86.20
2017-06-14T02:05:04.559Z,86.30
2017-06-14T02:07:33.440Z,86.30
2017-06-14T02:10:01.735Z,86.70
2017-06-14T02:12:30.119Z,87.10
2017-06-14T02:14:58.431Z,87.00
2017-06-14T02:17:27.493Z,87.20
2017-06-14T02:19:55.817Z,87.30
2017-06-14T02:22:24.545Z,87.20
2017-06-14T02:24:52.836Z,87.30
2017-06-14T02:27:21.125Z,87.10
2017-06-14T02:29:49.888Z,87.50
2017-06-14T02:32:18.301Z,88.10
2017-06-14T02:34:47.317Z,88.10
2017-06-14T02:37:16.165Z,88.30
2017-06-14T02:39:44.589Z,88.10
2017-06-14T02:42:13.156Z,88.00
2017-06-14T02:44:41.897Z,88.60
2017-06-14T02:47:11.564Z,88.70
2017-06-14T02:49:40.380Z,88.70
2017-06-14T02:52:09.157Z,88.80
2017-06-14T02:54:37.508Z,89.00
2017-06-14T02:57:06.035Z,89.20
2017-06-14T02:59:34.609Z,89.40
2017-06-14T03:02:02.896Z,88.90
2017-06-14T03:04:31.275Z,88.80
2017-06-14T03:06:59.967Z,89.30
2017-06-14T03:09:28.757Z,89.30
2017-06-14T03:11:57.146Z,89.20
2017-06-14T03:14:25.901Z,89.10
2017-06-14T03:16:54.213Z,89.20
2017-06-14T03:19:22.494Z,88.90
2017-06-14T03:21:52.804Z,88.70
2017-06-14T03:24:21.109Z,88.70
2017-06-14T03:26:49.489Z,88.50
2017-06-14T03:29:17.878Z,88.50
2017-06-14T03:31:46.365Z,88.60
2017-06-14T03:34:14.861Z,88.30
2017-06-14T03:36:44.154Z,88.40
2017-06-14T03:39:12.549Z,88.30
2017-06-14T03:41:41.324Z,88.30
2017-06-14T03:44:11.349Z,88.00
2017-06-14T03:46:39.837Z,88.20
2017-06-14T03:49:10.257Z,87.80
2017-06-14T03:51:38.549Z,87.70
2017-06-14T03:54:06.943Z,87.70
2017-06-14T03:56:35.725Z,87.50
2017-06-14T03:59:04.114Z,87.50
2017-06-14T04:01:32.413Z,87.10
2017-06-14T04:04:01.641Z,87.20
2017-06-14T04:06:30.797Z,87.00
2017-06-14T04:08:59.472Z,87.00
2017-06-14T04:11:28.393Z,86.50
2017-06-14T04:14:00.344Z,86.50
2017-06-14T04:16:28.733Z,86.40
2017-06-14T04:18:58.744Z,86.30
2017-06-14T04:21:27.129Z,85.90
2017-06-14T04:23:56.135Z,86.00
2017-06-14T04:26:24.461Z,86.10
2017-06-14T04:28:52.833Z,85.70
2017-06-14T04:31:21.789Z,85.50
2017-06-14T04:33:50.805Z,85.80
2017-06-14T04:36:19.188Z,85.20
2017-06-14T04:38:48.508Z,85.00
2017-06-14T04:41:16.832Z,84.90
2017-06-14T04:43:45.157Z,85.00
2017-06-14T04:46:14.141Z,84.80
2017-06-14T04:48:42.541Z,84.60
2017-06-14T04:51:11.330Z,84.40
2017-06-14T04:53:39.716Z,84.30
2017-06-14T04:56:08.482Z,84.50
2017-06-14T04:58:36.772Z,83.90
2017-06-14T05:01:05.075Z,83.20
2017-06-14T05:03:33.789Z,83.70
2017-06-14T05:06:03.375Z,82.90
2017-06-14T05:08:31.759Z,82.90
2017-06-14T05:11:00.640Z,82.80
2017-06-14T05:13:29.342Z,83.20
2017-06-14T05:15:58.666Z,82.00
2017-06-14T05:18:28.149Z,80.80
2017-06-14T05:20:56.490Z,81.20
2017-06-14T05:23:24.809Z,81.30
2017-06-14T05:25:53.112Z,81.00
2017-06-14T05:28:22.101Z,80.80
2017-06-14T05:30:51.117Z,80.80
2017-06-14T05:33:20.193Z,80.30
2017-06-14T05:35:48.484Z,79.40
2017-06-14T05:38:16.843Z,79.30
2017-06-14T05:40:45.453Z,79.00
2017-06-14T05:43:13.821Z,79.10
2017-06-14T05:45:42.210Z,78.70
2017-06-14T05:48:10.604Z,77.80
2017-06-14T05:50:38.896Z,77.20
2017-06-14T05:53:07.978Z,77.40
2017-06-14T05:55:36.297Z,77.20
2017-06-14T05:58:05.364Z,77.40
2017-06-14T06:00:34.512Z,77.30
2017-06-14T06:03:02.848Z,77.10
2017-06-14T06:05:31.845Z,77.40
2017-06-14T06:08:00.232Z,77.00
2017-06-14T06:10:28.608Z,77.70
2017-06-14T06:12:57.298Z,77.50
2017-06-14T06:15:25.688Z,77.40
2017-06-14T06:17:54.485Z,77.00
2017-06-14T06:20:22.845Z,76.00
2017-06-14T06:22:51.139Z,76.10
2017-06-14T06:25:19.423Z,74.70
2017-06-14T06:27:47.796Z,74.50
2017-06-14T06:30:16.091Z,75.00
2017-06-14T06:32:44.415Z,74.80
2017-06-14T06:35:12.767Z,74.50
2017-06-14T06:37:41.141Z,73.70
2017-06-14T06:40:09.452Z,73.90
2017-06-14T06:42:38.520Z,73.00
2017-06-14T06:45:06.893Z,72.80
2017-06-14T06:47:35.990Z,71.60
2017-06-14T06:50:04.381Z,70.90
2017-06-14T06:52:32.765Z,70.40
2017-06-14T06:55:01.260Z,70.30
2017-06-14T06:57:30.044Z,70.70
2017-06-14T06:59:58.348Z,70.00
2017-06-14T07:02:27.062Z,69.50
2017-06-14T07:04:56.147Z,69.40
2017-06-14T07:07:25.221Z,70.10
2017-06-14T07:09:53.634Z,70.00
2017-06-14T07:12:22.413Z,69.80
2017-06-14T07:14:50.712Z,68.90
2017-06-14T07:17:20.396Z,68.30
2017-06-14T07:19:49.746Z,68.30
2017-06-14T07:22:18.086Z,69.60
2017-06-14T07:24:46.878Z,69.00
2017-06-14T07:27:15.388Z,69.80
2017-06-14T07:29:44.874Z,67.00
2017-06-14T07:32:13.361Z,66.10
2017-06-14T07:34:41.739Z,65.20
2017-06-14T07:37:10.019Z,64.00
2017-06-14T07:39:38.710Z,64.20
2017-06-14T07:42:07.499Z,63.80
2017-06-14T07:44:35.800Z,62.60
2017-06-14T07:47:04.560Z,61.50
2017-06-14T07:49:32.874Z,61.10
2017-06-14T07:52:01.246Z,60.20
2017-06-14T07:54:30.556Z,59.30
2017-06-14T07:56:59.863Z,58.70
2017-06-14T07:59:28.344Z,58.70
2017-06-14T08:01:56.625Z,57.90
2017-06-14T08:04:25.314Z,57.90
2017-06-14T08:06:54.359Z,58.60
2017-06-14T08:09:23.504Z,59.10
2017-06-14T08:11:51.807Z,59.10
2017-06-14T08:14:20.196Z,59.30
2017-06-14T08:16:48.798Z,58.30
2017-06-14T08:19:20.106Z,58.20
2017-06-14T08:21:48.377Z,57.70
2017-06-14T08:24:16.891Z,56.90
2017-06-14T08:26:46.410Z,56.30
2017-06-14T08:29:15.389Z,57.70
2017-06-14T08:31:43.776Z,58.10
2017-06-14T08:34:12.156Z,57.60
2017-06-14T08:36:41.465Z,57.60
2017-06-14T08:39:10.134Z,58.20
2017-06-14T08:41:38.480Z,57.60
2017-06-14T08:44:07.483Z,57.40
2017-06-14T08:46:35.854Z,56.10
2017-06-14T08:49:04.529Z,55.40
2017-06-14T08:51:32.919Z,55.70
2017-06-14T08:54:01.805Z,55.10
2017-06-14T08:56:31.955Z,54.60
2017-06-14T08:59:02.308Z,54.80
2017-06-14T09:01:31.316Z,54.80
2017-06-14T09:03:59.591Z,54.80
2017-06-14T09:06:27.949Z,54.50
2017-06-14T09:08:57.758Z,53.90
2017-06-14T09:11:26.068Z,54.40
2017-06-14T09:13:54.765Z,55.40
2017-06-14T09:16:23.037Z,54.80
2017-06-14T09:18:51.370Z,54.70
2017-06-14T09:21:19.771Z,54.50
2017-06-14T09:23:48.830Z,54.60
2017-06-14T09:26:17.236Z,54.40
2017-06-14T09:28:45.531Z,54.10
2017-06-14T09:31:14.608Z,52.10
2017-06-14T09:33:42.992Z,52.10
2017-06-14T09:36:11.629Z,51.30
2017-06-14T09:38:39.977Z,51.00
2017-06-14T09:41:08.332Z,51.10
2017-06-14T09:43:36.742Z,51.50
2017-06-14T09:46:05.421Z,52.10
2017-06-14T09:48:34.546Z,52.50
2017-06-14T09:51:03.634Z,52.10
2017-06-14T09:53:32.959Z,51.60
2017-06-14T09:56:02.026Z,50.60
2017-06-14T09:58:51.404Z,50.50
2017-06-14T10:01:19.682Z,50.00
2017-06-14T10:03:48.013Z,50.00
2017-06-14T10:06:16.735Z,49.50
2017-06-14T10:08:45.424Z,47.80
2017-06-14T10:11:15.095Z,48.20
2017-06-14T10:13:43.413Z,48.20
2017-06-14T10:16:12.805Z,46.20
2017-06-14T10:18:42.296Z,47.30
2017-06-14T10:21:10.601Z,47.30
2017-06-14T10:23:39.912Z,46.10
2017-06-14T10:26:09.293Z,46.10
2017-06-14T10:28:38.388Z,44.40
2017-06-14T10:31:08.301Z,45.00
2017-06-14T10:33:37.457Z,44.60
2017-06-14T10:36:06.521Z,43.60
2017-06-14T10:38:36.474Z,44.30
2017-06-14T10:41:05.271Z,44.20
2017-06-14T10:43:33.588Z,43.60
2017-06-14T10:46:01.969Z,43.60
2017-06-14T10:48:30.377Z,43.40
2017-06-14T10:50:59.667Z,42.60
2017-06-14T10:53:28.870Z,41.80
2017-06-14T10:55:58.069Z,41.70
2017-06-14T10:58:26.367Z,41.70
2017-06-14T11:00:54.665Z,40.70
2017-06-14T11:03:23.753Z,37.40
2017-06-14T11:05:52.840Z,36.40
2017-06-14T11:08:21.149Z,35.60
2017-06-14T11:10:49.446Z,35.60
2017-06-14T11:13:18.488Z,35.20
2017-06-14T11:15:46.888Z,33.50
2017-06-14T11:18:15.212Z,33.20
2017-06-14T11:20:43.541Z,31.90
2017-06-14T11:23:12.440Z,31.00
2017-06-14T11:25:41.600Z,31.20
2017-06-14T11:28:10.621Z,32.20
2017-06-14T11:30:40.169Z,28.20
2017-06-14T11:33:08.961Z,29.00
2017-06-14T11:35:38.053Z,26.50
2017-06-14T11:38:06.468Z,25.90
2017-06-14T11:40:34.751Z,27.80
2017-06-14T11:43:04.344Z,27.30
2017-06-14T11:45:32.712Z,27.30
2017-06-14T11:48:01.534Z,26.10
2017-06-14T11:50:30.635Z,25.20
2017-06-14T11:53:00.525Z,26.20
2017-06-14T11:55:28.893Z,25.90
2017-06-14T11:57:57.260Z,25.80
2017-06-14T12:00:25.617Z,26.60
2017-06-14T12:02:54.950Z,27.90
2017-06-14T12:05:23.277Z,29.30
2017-06-14T12:07:51.768Z,29.70
2017-06-14T12:10:20.172Z,30.20
2017-06-14T12:12:49.552Z,28.70
2017-06-14T12:15:17.973Z,28.60
2017-06-14T12:17:46.477Z,27.90
2017-06-14T12:20:15.238Z,27.30
2017-06-14T12:22:43.949Z,28.30
2017-06-14T12:25:12.582Z,28.20
2017-06-14T12:27:41.155Z,28.50
2017-06-14T12:30:10.282Z,27.80
2017-06-14T12:32:38.602Z,27.00
2017-06-14T12:35:07.216Z,27.00
2017-06-14T12:37:35.569Z,26.80
2017-06-14T12:40:03.891Z,25.90
2017-06-14T12:42:32.204Z,25.90
2017-06-14T12:45:00.518Z,25.70
2017-06-14T12:47:29.969Z,23.50
2017-06-14T12:49:58.761Z,23.90
2017-06-14T12:52:27.142Z,23.20
2017-06-14T12:54:59.235Z,21.10
2017-06-14T12:57:28.731Z,19.60
2017-06-14T12:59:57.968Z,20.00
2017-06-14T13:02:27.420Z,19.90
2017-06-14T13:04:56.346Z,20.40
2017-06-14T13:07:24.729Z,20.70
2017-06-14T13:09:54.223Z,18.90
2017-06-14T13:12:22.505Z,19.30
2017-06-14T13:14:51.286Z,20.60
2017-06-14T13:17:20.798Z,17.20
2017-06-14T13:19:50.069Z,17.60
2017-06-14T13:22:18.410Z,18.70
2017-06-14T13:24:46.784Z,19.10
2017-06-14T13:27:15.586Z,18.90
2017-06-14T13:29:44.869Z,19.10
2017-06-14T13:32:13.262Z,19.80
2017-06-14T13:34:43.639Z,20.70
2017-06-14T13:37:13.412Z,19.20
2017-06-14T13:39:42.519Z,17.90
2017-06-14T13:42:11.868Z,17.90
2017-06-14T13:44:41.423Z,16.20
2017-06-14T13:47:10.367Z,16.70
2017-06-14T13:49:41.710Z,16.90
2017-06-14T13:52:10.097Z,17.30
2017-06-14T13:54:39.309Z,17.10
2017-06-14T13:57:09.553Z,18.90
2017-06-14T13:59:38.140Z,19.30
2017-06-14T14:02:06.449Z,18.90
2017-06-14T14:04:34.731Z,18.40
2017-06-14T14:07:04.210Z,16.50
2017-06-14T14:09:33.697Z,17.50
2017-06-14T14:12:02.040Z,17.90
2017-06-14T14:14:30.637Z,18.40
2017-06-14T14:16:59.721Z,18.90
2017-06-14T14:19:28.817Z,18.90
2017-06-14T14:21:57.108Z,18.70
2017-06-14T14:24:28.221Z,19.00
2017-06-14T14:26:56.736Z,19.70
2017-06-14T14:29:26.803Z,20.10
2017-06-14T14:31:55.130Z,20.50
2017-06-14T14:34:24.186Z,20.70
2017-06-14T14:36:52.541Z,21.30
2017-06-14T14:39:20.845Z,20.70
2017-06-14T14:41:49.870Z,20.50
2017-06-14T14:44:18.189Z,20.20
2017-06-14T14:46:47.269Z,20.20
2017-06-14T14:49:15.982Z,19.40
2017-06-14T14:51:45.429Z,19.70
2017-06-14T14:54:13.772Z,20.20
2017-06-14T14:56:42.466Z,21.00
2017-06-14T14:59:11.570Z,21.10
2017-06-14T15:01:40.679Z,20.80
2017-06-14T15:04:09.768Z,19.60
2017-06-14T15:06:38.084Z,19.60
2017-06-14T15:09:06.829Z,20.60
2017-06-14T15:11:35.906Z,18.90
2017-06-14T15:14:04.215Z,18.90
2017-06-14T15:16:32.533Z,19.20
2017-06-14T15:19:02.503Z,18.50
2017-06-14T15:21:31.665Z,18.40
2017-06-14T15:24:00.911Z,18.00
2017-06-14T15:26:30.412Z,17.80
2017-06-14T15:28:59.423Z,18.20
2017-06-14T15:31:29.045Z,19.80
2017-06-14T15:33:57.325Z,20.50
2017-06-14T15:36:25.646Z,20.60
2017-06-14T15:38:53.969Z,21.00
2017-06-14T15:43:53.006Z,54.30
2017-06-14T15:46:22.208Z,25.00
2017-06-14T15:48:51.961Z,26.20
2017-06-14T15:51:20.757Z,27.50
2017-06-14T15:53:49.797Z,29.60
2017-06-14T15:56:18.922Z,29.50
2017-06-14T15:58:47.225Z,29.90
2017-06-14T16:01:15.598Z,30.60
2017-06-14T16:03:44.564Z,32.10
2017-06-14T16:06:12.889Z,32.90
2017-06-14T16:08:41.915Z,33.00
2017-06-14T16:11:10.227Z,32.70
2017-06-14T16:13:38.496Z,31.80
2017-06-14T16:16:06.822Z,32.10
2017-06-14T16:18:35.878Z,32.80
2017-06-14T16:21:04.202Z,32.80
2017-06-14T16:23:33.380Z,33.50
2017-06-14T16:26:02.478Z,33.50
2017-06-14T16:28:32.346Z,33.80
2017-06-14T16:31:00.664Z,33.40
2017-06-14T16:33:29.024Z,33.90
2017-06-14T16:35:57.556Z,34.10
2017-06-14T16:38:26.257Z,34.40
2017-06-14T16:40:55.357Z,34.90
2017-06-14T16:43:23.723Z,34.90
2017-06-14T16:45:52.126Z,35.00
2017-06-14T16:48:20.723Z,35.60
2017-06-14T16:50:49.526Z,36.10
2017-06-14T16:53:19.916Z,36.40
2017-06-14T16:55:48.293Z,36.30
2017-06-14T16:58:16.638Z,36.20
2017-06-14T17:00:45.679Z,36.00
2017-06-14T17:03:14.685Z,36.20
2017-06-14T17:05:44.012Z,36.10
2017-06-14T17:08:13.783Z,36.20
2017-06-14T17:10:42.449Z,35.90
2017-06-14T17:13:10.891Z,36.30
2017-06-14T17:15:39.690Z,36.60
2017-06-14T17:18:08.893Z,35.90
2017-06-14T17:20:38.417Z,35.70
2017-06-14T17:23:06.966Z,35.60
2017-06-14T17:25:35.276Z,36.10
2017-06-14T17:28:04.366Z,35.60
2017-06-14T17:30:32.953Z,35.50
2017-06-14T17:33:01.256Z,35.70
2017-06-14T17:35:29.861Z,35.90
2017-06-14T17:37:58.174Z,36.00
2017-06-14T17:40:27.079Z,36.60
2017-06-14T17:42:56.644Z,36.90
2017-06-14T17:45:25.321Z,36.70
2017-06-14T17:47:54.500Z,37.40
2017-06-14T17:50:23.492Z,37.40
2017-06-14T17:52:52.058Z,37.80
2017-06-14T17:55:20.365Z,38.00
2017-06-14T17:57:48.981Z,38.10
2017-06-14T18:00:18.062Z,39.10
2017-06-14T18:02:47.145Z,39.40
2017-06-14T18:05:16.356Z,39.00
2017-06-14T18:07:44.720Z,39.30
2017-06-14T18:10:13.657Z,39.00
2017-06-14T18:12:43.551Z,38.80
2017-06-14T18:15:12.199Z,38.80
2017-06-14T18:17:40.661Z,39.30
2017-06-14T18:20:10.066Z,39.10
2017-06-14T18:22:39.865Z,39.10
2017-06-14T18:25:08.988Z,39.10
2017-06-14T18:27:38.091Z,39.20
2017-06-14T18:30:08.080Z,39.60
2017-06-14T18:32:36.790Z,39.50
2017-06-14T18:35:05.125Z,39.70
2017-06-14T18:37:33.546Z,39.50
2017-06-14T18:40:01.853Z,39.30
2017-06-14T18:42:30.350Z,39.40
2017-06-14T18:44:58.664Z,39.60
2017-06-14T18:47:27.286Z,39.90
2017-06-14T18:49:56.464Z,40.40
2017-06-14T18:52:24.834Z,40.30
2017-06-14T18:54:53.133Z,40.80
2017-06-14T18:57:21.425Z,41.30
2017-06-14T18:59:49.880Z,41.60
2017-06-14T19:02:18.282Z,41.80
2017-06-14T19:04:47.891Z,42.00
2017-06-14T19:07:16.197Z,42.40
2017-06-14T19:09:45.085Z,42.70
2017-06-14T19:12:14.150Z,43.30
2017-06-14T19:14:42.764Z,43.30
2017-06-14T19:17:11.429Z,43.80
2017-06-14T19:19:39.729Z,44.10
2017-06-14T19:22:08.059Z,44.50
2017-06-14T19:24:37.119Z,45.00
2017-06-14T19:27:05.455Z,44.90
2017-06-14T19:29:33.766Z,45.40
2017-06-14T19:32:03.114Z,45.60
2017-06-14T19:34:32.231Z,45.90
2017-06-14T19:37:01.500Z,46.20
2017-06-14T19:39:30.995Z,46.50
2017-06-14T19:41:59.271Z,46.70
2017-06-14T19:44:27.683Z,46.90
2017-06-14T19:46:56.030Z,47.30
2017-06-14T19:49:24.436Z,47.40
2017-06-14T19:51:52.827Z,47.50
2017-06-14T19:54:21.713Z,47.90
2017-06-14T19:56:51.409Z,48.10
2017-06-14T19:59:19.711Z,48.30
2017-06-14T20:01:48.124Z,48.60
2017-06-14T20:04:17.297Z,48.70
2017-06-14T20:06:45.701Z,49.00
2017-06-14T20:09:15.374Z,49.80
2017-06-14T20:11:44.329Z,49.80
2017-06-14T20:14:13.540Z,50.00
2017-06-14T20:16:41.953Z,50.30
2017-06-14T20:19:11.174Z,50.50
2017-06-14T20:21:39.656Z,50.80
2017-06-14T20:24:08.436Z,51.00
2017-06-14T20:26:37.449Z,51.10
2017-06-14T20:29:05.849Z,51.20
2017-06-14T20:31:34.934Z,51.60
2017-06-14T20:34:03.258Z,51.50
2017-06-14T20:36:32.993Z,52.00
2017-06-14T20:39:02.149Z,52.40
2017-06-14T20:41:31.236Z,53.10
2017-06-14T20:44:00.070Z,53.10
2017-06-14T20:46:28.573Z,53.30
2017-06-14T20:48:56.943Z,53.50
2017-06-14T20:51:25.237Z,53.60
2017-06-14T20:53:54.261Z,54.20
2017-06-14T20:56:22.577Z,54.60
2017-06-14T20:58:51.653Z,55.30
2017-06-14T21:01:20.056Z,55.30
2017-06-14T21:03:48.937Z,55.70
2017-06-14T21:06:18.137Z,55.70
2017-06-14T21:08:47.197Z,55.90
2017-06-14T21:11:16.302Z,56.10
2017-06-14T21:13:44.976Z,56.30
2017-06-14T21:16:14.175Z,56.30
2017-06-14T21:18:43.212Z,56.30
2017-06-14T21:21:11.871Z,56.20
2017-06-14T21:23:40.205Z,56.00
2017-06-14T21:26:08.720Z,55.90
2017-06-14T21:28:37.821Z,56.80
2017-06-14T21:31:06.142Z,57.40
2017-06-14T21:33:34.489Z,57.00
2017-06-14T21:36:04.957Z,57.70
2017-06-14T21:38:33.253Z,57.70
2017-06-14T21:41:02.485Z,58.10
2017-06-14T21:43:30.909Z,58.10
2017-06-14T21:45:59.729Z,58.10
2017-06-14T21:48:28.920Z,58.40
2017-06-14T21:50:57.272Z,58.60
2017-06-14T21:53:27.241Z,59.20
2017-06-14T21:55:55.561Z,59.20
2017-06-14T21:58:23.981Z,59.20
2017-06-14T22:00:52.296Z,59.40
2017-06-14T22:03:20.600Z,59.80
2017-06-14T22:05:49.774Z,60.40
2017-06-14T22:08:18.237Z,60.30
2017-06-14T22:10:46.558Z,60.50
2017-06-14T22:13:14.929Z,60.60
2017-06-14T22:15:43.334Z,60.90
2017-06-14T22:18:11.604Z,61.90
2017-06-14T22:20:40.383Z,60.90
2017-06-14T22:23:08.684Z,62.20
2017-06-14T22:25:37.056Z,62.60
2017-06-14T22:28:05.565Z,63.20
2017-06-14T22:30:34.869Z,63.90
2017-06-14T22:33:03.933Z,63.90
2017-06-14T22:35:32.309Z,63.80
2017-06-14T22:38:00.628Z,64.20
2017-06-14T22:40:29.280Z,64.90
2017-06-14T22:42:57.896Z,64.60
2017-06-14T22:45:26.600Z,64.60
2017-06-14T22:47:55.647Z,65.40
2017-06-14T22:50:23.938Z,64.70
2017-06-14T22:52:52.327Z,65.30
2017-06-14T22:55:21.442Z,65.00
2017-06-14T22:57:50.123Z,65.10
2017-06-14T23:00:18.404Z,66.00
2017-06-14T23:02:46.802Z,65.10
2017-06-14T23:05:15.801Z,65.30
2017-06-14T23:07:45.000Z,65.80
2017-06-14T23:10:13.301Z,65.90
2017-06-14T23:12:42.695Z,66.40
2017-06-14T23:15:10.998Z,66.40
2017-06-14T23:17:41.213Z,66.80
2017-06-14T23:20:10.609Z,67.20
2017-06-14T23:22:39.011Z,67.10
2017-06-14T23:25:08.077Z,65.90
2017-06-14T23:27:36.462Z,66.50
2017-06-14T23:30:04.782Z,67.50
2017-06-14T23:32:34.676Z,68.10
2017-06-14T23:35:03.964Z,68.10
2017-06-14T23:37:32.877Z,68.30
2017-06-14T23:40:01.181Z,68.30
2017-06-14T23:42:30.520Z,68.50
2017-06-14T23:44:59.555Z,68.50
2017-06-14T23:47:28.491Z,68.60
2017-06-14T23:49:56.804Z,68.70
2017-06-14T23:52:25.104Z,68.90
2017-06-14T23:54:53.390Z,69.00
2017-06-14T23:57:21.792Z,68.10
2017-06-14T23:59:50.162Z,69.60
